Terminal Aerodrome Forecast
Issued by NWS Los Angeles, CA

Home | Current Version | Previous Version | Text Only | Print | Product List | Glossary On
Versions: 1 2 3 4 5 6 7 8 9 10 11 12 13 14 15 16 17 18 19 20 21 22 23 24 25 26 27
000
FTUS46 KLOX 181724
TAFSMX
TAF
KSMX 181724Z 1818/1918 VRB03KT 3SM BR OVC004
     FM182000 30010KT P6SM BKN150
     FM190300 32006KT P6SM BKN025 OVC050 PROB30 1908/1914 -SHRA
     FM191400 32008KT P6SM SCT025 BKN050=

USA.gov is the U.S. government's official web portal to all federal, state and local government web resources and services.